Evelyn Cutler — WDH6071 — position and weather

sailwx.info

Track history (hours):
 
Tides and Currents Weather Stations Pressure Air Temp Water Temp Dewpoint Dewpoint Depression Visibility Wind Speed Wind Dir Waves Ship Positions

Evelyn Cutler

Owner: poling&cutler marine trans. llc, East Brunswick, NJ. More information available from US FCC via Universal Licensing System and Coast Guard Vessel Documentation Center.

Last reported at 2017-Nov-23 17:59 UTC. Time now 2017-Nov-23 18:28 UTC.
Position N 40°54' W 073°55'.

Length 40 m; draft 5 m.

Type: Towing. MMSI: 367634360.

Date/timePositionNaut miles runAvg speedWind from/ knotsBaromVisibWave heightAir tempDewpointWater temp
2017-Nov-23 17:59N 40°54' W 073°55'0 0.0
2017-Nov-23 17:29N 40°54' W 073°55'0 0.0
2017-Nov-23 16:56N 40°54' W 073°55'0 0.0
2017-Nov-23 16:29N 40°54' W 073°55'0 0.0
2017-Nov-23 15:59N 40°54' W 073°55'0 0.2
2017-Nov-23 15:30N 40°54' W 073°55'4 8.1
2017-Nov-23 15:00N 40°50' W 073°57'510.0
2017-Nov-23 14:30N 40°46' W 074°00'5 9.3
2017-Nov-23 14:00N 40°42' W 074°02'4 7.5
2017-Nov-23 13:30N 40°38' W 074°04'1 2.0
2017-Nov-23 13:00N 40°39' W 074°04'4 7.4
2017-Nov-23 12:30N 40°42' W 074°00'3 5.9
2017-Nov-23 12:00N 40°45' W 073°58'3 6.0
2017-Nov-23 11:30N 40°47' W 073°56'2 5.0
2017-Nov-23 11:00N 40°48' W 073°53'3 5.1
2017-Nov-23 10:30N 40°48' W 073°49'2 4.3
2017-Nov-23 10:00N 40°49' W 073°47'3 6.1
2017-Nov-23 09:30N 40°52' W 073°45'50 7.1
2017-Nov-23 02:26N 41°12' W 072°44'4 8.1
2017-Nov-23 01:58N 41°12' W 072°39'4 8.0
2017-Nov-23 01:30N 41°12' W 072°34'4 7.7
2017-Nov-23 01:00N 41°12' W 072°29'3 6.9
2017-Nov-23 00:30N 41°12' W 072°24'4 7.6
2017-Nov-23 00:00N 41°13' W 072°19'4 7.3
2017-Nov-22 23:30N 41°14' W 072°15'3 6.5
2017-Nov-22 23:00N 41°15' W 072°11'3 6.8
2017-Nov-22 22:30N 41°17' W 072°06'  
2017-Nov-19 12:05N 40°54' W 073°55'1 9.6
2017-Nov-19 12:00N 40°53' W 073°56'5 9.4
2017-Nov-19 11:29N 40°48' W 073°59'4 8.7
2017-Nov-19 11:00N 40°45' W 074°01'4 8.1
2017-Nov-19 10:30N 40°41' W 074°02'3 6.6
2017-Nov-19 10:00N 40°39' W 074°06'3 6.2
2017-Nov-19 09:30N 40°39' W 074°10'2 4.0
2017-Nov-19 08:59N 40°38' W 074°12'0 0.0
2017-Nov-19 08:26N 40°38' W 074°12'0 0.0
2017-Nov-19 07:59N 40°38' W 074°12'0 0.0
2017-Nov-19 07:11N 40°38' W 074°12'0 0.0
2017-Nov-19 04:50N 40°38' W 074°12'0 0.0
2017-Nov-19 04:20N 40°38' W 074°12'0 0.0
2017-Nov-19 03:59N 40°38' W 074°12'0 0.0
2017-Nov-19 03:26N 40°38' W 074°12'0 0.0
2017-Nov-19 02:56N 40°38' W 074°12'0 0.0
2017-Nov-19 02:26N 40°38' W 074°12'0 0.0
2017-Nov-19 01:50N 40°38' W 074°12'0 0.0
2017-Nov-19 01:26N 40°38' W 074°12'0 0.0
2017-Nov-19 00:50N 40°38' W 074°12'0 0.0
2017-Nov-19 00:26N 40°38' W 074°12'0 0.0
2017-Nov-18 23:56N 40°38' W 074°12'0 0.0
2017-Nov-18 23:26N 40°38' W 074°12'0 0.0
2017-Nov-18 22:50N 40°38' W 074°12'0 0.0
2017-Nov-18 22:26N 40°38' W 074°12'0 0.0
2017-Nov-18 21:56N 40°38' W 074°12'0 0.0
2017-Nov-18 21:26N 40°38' W 074°12'0 0.0
2017-Nov-18 20:56N 40°38' W 074°12'0 0.0
2017-Nov-18 20:26N 40°38' W 074°12'0 0.0
2017-Nov-18 19:56N 40°38' W 074°12'0 0.0
2017-Nov-18 19:26N 40°38' W 074°12'0 0.0
2017-Nov-18 18:56N 40°38' W 074°12'0 0.0
2017-Nov-18 18:26N 40°38' W 074°12'0 0.0
2017-Nov-18 17:56N 40°38' W 074°12'0 0.0
2017-Nov-18 17:20N 40°38' W 074°12'0 0.0
2017-Nov-18 16:56N 40°38' W 074°12'0 0.0
2017-Nov-18 16:26N 40°38' W 074°12'0 0.0
2017-Nov-18 15:50N 40°38' W 074°12'0 0.0
2017-Nov-18 15:29N 40°38' W 074°12'0 0.2
2017-Nov-18 15:00N 40°38' W 074°12'0 0.7
2017-Nov-18 14:30N 40°37' W 074°12'0 0.9
2017-Nov-18 14:00N 40°38' W 074°12'1 3.0
2017-Nov-18 13:30N 40°39' W 074°11'2 3.3
2017-Nov-18 13:01N 40°39' W 074°09'2 3.6
2017-Nov-18 12:31N 40°39' W 074°06'3 5.2
2017-Nov-18 12:01N 40°40' W 074°03'3 5.0
2017-Nov-18 11:31N 40°42' W 074°02'3 5.2
2017-Nov-18 11:01N 40°44' W 074°01'3 5.8
2017-Nov-18 10:30N 40°47' W 073°60'4 8.7
2017-Nov-18 10:00N 40°51' W 073°57'5 9.3
2017-Nov-18 09:30N 40°56' W 073°55'1 0.0
2017-Nov-17 11:07N 40°57' W 073°54'1 8.3
2017-Nov-17 10:57N 40°55' W 073°55'4 8.0
2017-Nov-17 10:30N 40°52' W 073°57'4 8.0
2017-Nov-17 10:00N 40°48' W 073°59'4 7.3
2017-Nov-17 09:30N 40°45' W 074°01'3 6.4
2017-Nov-17 09:00N 40°42' W 074°02'3 6.7
2017-Nov-17 08:30N 40°39' W 074°04'3 6.7
2017-Nov-17 08:00N 40°39' W 074°08'3 6.0
2017-Nov-17 07:30N 40°38' W 074°12'2 1.1
2017-Nov-17 05:16N 40°35' W 074°13'0 0.0
2017-Nov-17 04:46N 40°35' W 074°13'0 0.0
2017-Nov-16 21:31N 40°35' W 074°13'0 0.1
2017-Nov-16 21:27N 40°35' W 074°13'0 0.0
2017-Nov-16 20:28N 40°35' W 074°13'0 1.0
2017-Nov-16 20:00N 40°35' W 074°13'2 3.7
2017-Nov-16 19:30N 40°37' W 074°12'3 6.4
2017-Nov-16 19:00N 40°39' W 074°09'4 8.2
2017-Nov-16 18:30N 40°39' W 074°04'1 1.1
2017-Nov-16 18:00N 40°38' W 074°04'0 0.3
2017-Nov-16 17:31N 40°38' W 074°04'2 4.7
2017-Nov-16 17:00N 40°40' W 074°03'4 7.3
2017-Nov-16 16:30N 40°44' W 074°01'4 8.6
2017-Nov-16 16:00N 40°48' W 073°59'5 9.0
2017-Nov-16 15:30N 40°52' W 073°57'4 8.5
2017-Nov-16 14:59N 40°56' W 073°55'1 0.0
2017-Nov-15 20:44N 40°55' W 073°55'2 7.2
2017-Nov-15 20:30N 40°54' W 073°56'3 7.0
2017-Nov-15 20:00N 40°50' W 073°57'3 6.5
2017-Nov-15 19:30N 40°48' W 073°59'3 6.0
2017-Nov-15 19:00N 40°45' W 074°01'3 5.9
2017-Nov-15 18:30N 40°42' W 074°02'3 6.4
2017-Nov-15 18:00N 40°39' W 074°03'1 1.6
2017-Nov-15 17:30N 40°38' W 074°04'3 5.5
2017-Nov-15 17:00N 40°39' W 074°08'3 5.3
2017-Nov-15 16:30N 40°39' W 074°11'3 6.2
2017-Nov-15 16:00N 40°36' W 074°12'1 1.2
2017-Nov-15 15:30N 40°35' W 074°13'0 0.0
2017-Nov-15 14:13N 40°35' W 074°13'0 0.0
2017-Nov-15 13:13N 40°35' W 074°13'0 0.0
2017-Nov-15 12:55N 40°35' W 074°13'4 2.8
2017-Nov-15 11:30N 40°39' W 074°11'3 5.2
2017-Nov-15 10:58N 40°39' W 074°07'0 0.0
2017-Nov-15 10:28N 40°39' W 074°07'0 0.0
2017-Nov-15 09:58N 40°39' W 074°07'0 0.0
2017-Nov-15 09:28N 40°39' W 074°07'0 0.0
2017-Nov-15 08:58N 40°39' W 074°07'0 0.0
2017-Nov-15 08:31N 40°39' W 074°07'0 0.0
2017-Nov-15 08:00N 40°39' W 074°07'0 0.0
2017-Nov-15 07:30N 40°39' W 074°07'0 0.0
2017-Nov-15 07:00N 40°39' W 074°07'0 0.0
2017-Nov-15 06:30N 40°39' W 074°07'0 0.0
2017-Nov-15 06:00N 40°39' W 074°07'0 0.0
2017-Nov-15 05:30N 40°39' W 074°07'0 0.0
2017-Nov-15 05:01N 40°39' W 074°07'0 0.0
2017-Nov-15 04:30N 40°39' W 074°07'3 6.5
2017-Nov-15 04:00N 40°39' W 074°11'4 7.4
2017-Nov-15 03:30N 40°35' W 074°13'0 0.9
2017-Nov-15 03:00N 40°35' W 074°13'4 7.8
2017-Nov-15 02:30N 40°39' W 074°11'3 5.6
2017-Nov-15 02:01N 40°39' W 074°08'3 6.4
2017-Nov-15 01:30N 40°39' W 074°04'1 2.6
2017-Nov-15 01:00N 40°39' W 074°02'1 2.8
2017-Nov-15 00:30N 40°40' W 074°01'4 7.3
2017-Nov-15 00:00N 40°44' W 074°01'4 7.5
2017-Nov-14 23:30N 40°48' W 073°59'4 7.2
2017-Nov-14 23:00N 40°51' W 073°57'4 7.3
2017-Nov-14 22:30N 40°54' W 073°55'  
Track history (hours):
 
Tides and Currents Weather Stations Pressure Air Temp Water Temp Dewpoint Dewpoint Depression Visibility Wind Speed Wind Dir Waves Ship Positions

Evelyn Cutler

Owner: poling&cutler marine trans. llc, East Brunswick, NJ. More information available from US FCC via Universal Licensing System and Coast Guard Vessel Documentation Center.

Last reported at 2017-Nov-23 17:59 UTC. Time now 2017-Nov-23 18:28 UTC.
Position N 40°54' W 073°55'.

Length 40 m; draft 5 m.

Type: Towing. MMSI: 367634360.

Date/timePositionNaut miles runAvg speedWind from/ knotsBaromVisibWave heightAir tempDewpointWater temp
2017-Nov-23 17:59N 40°54' W 073°55'0 0.0
2017-Nov-23 17:29N 40°54' W 073°55'0 0.0
2017-Nov-23 16:56N 40°54' W 073°55'0 0.0
2017-Nov-23 16:29N 40°54' W 073°55'0 0.0
2017-Nov-23 15:59N 40°54' W 073°55'0 0.2
2017-Nov-23 15:30N 40°54' W 073°55'4 8.1
2017-Nov-23 15:00N 40°50' W 073°57'510.0
2017-Nov-23 14:30N 40°46' W 074°00'5 9.3
2017-Nov-23 14:00N 40°42' W 074°02'4 7.5
2017-Nov-23 13:30N 40°38' W 074°04'1 2.0
2017-Nov-23 13:00N 40°39' W 074°04'4 7.4
2017-Nov-23 12:30N 40°42' W 074°00'3 5.9
2017-Nov-23 12:00N 40°45' W 073°58'3 6.0
2017-Nov-23 11:30N 40°47' W 073°56'2 5.0
2017-Nov-23 11:00N 40°48' W 073°53'3 5.1
2017-Nov-23 10:30N 40°48' W 073°49'2 4.3
2017-Nov-23 10:00N 40°49' W 073°47'3 6.1
2017-Nov-23 09:30N 40°52' W 073°45'50 7.1
2017-Nov-23 02:26N 41°12' W 072°44'4 8.1
2017-Nov-23 01:58N 41°12' W 072°39'4 8.0
2017-Nov-23 01:30N 41°12' W 072°34'4 7.7
2017-Nov-23 01:00N 41°12' W 072°29'3 6.9
2017-Nov-23 00:30N 41°12' W 072°24'4 7.6
2017-Nov-23 00:00N 41°13' W 072°19'4 7.3
2017-Nov-22 23:30N 41°14' W 072°15'3 6.5
2017-Nov-22 23:00N 41°15' W 072°11'3 6.8
2017-Nov-22 22:30N 41°17' W 072°06'  
2017-Nov-19 12:05N 40°54' W 073°55'1 9.6
2017-Nov-19 12:00N 40°53' W 073°56'5 9.4
2017-Nov-19 11:29N 40°48' W 073°59'4 8.7
2017-Nov-19 11:00N 40°45' W 074°01'4 8.1
2017-Nov-19 10:30N 40°41' W 074°02'3 6.6
2017-Nov-19 10:00N 40°39' W 074°06'3 6.2
2017-Nov-19 09:30N 40°39' W 074°10'2 4.0
2017-Nov-19 08:59N 40°38' W 074°12'0 0.0
2017-Nov-19 08:26N 40°38' W 074°12'0 0.0
2017-Nov-19 07:59N 40°38' W 074°12'0 0.0
2017-Nov-19 07:11N 40°38' W 074°12'0 0.0
2017-Nov-19 04:50N 40°38' W 074°12'0 0.0
2017-Nov-19 04:20N 40°38' W 074°12'0 0.0
2017-Nov-19 03:59N 40°38' W 074°12'0 0.0
2017-Nov-19 03:26N 40°38' W 074°12'0 0.0
2017-Nov-19 02:56N 40°38' W 074°12'0 0.0
2017-Nov-19 02:26N 40°38' W 074°12'0 0.0
2017-Nov-19 01:50N 40°38' W 074°12'0 0.0
2017-Nov-19 01:26N 40°38' W 074°12'0 0.0
2017-Nov-19 00:50N 40°38' W 074°12'0 0.0
2017-Nov-19 00:26N 40°38' W 074°12'0 0.0
2017-Nov-18 23:56N 40°38' W 074°12'0 0.0
2017-Nov-18 23:26N 40°38' W 074°12'0 0.0
2017-Nov-18 22:50N 40°38' W 074°12'0 0.0
2017-Nov-18 22:26N 40°38' W 074°12'0 0.0
2017-Nov-18 21:56N 40°38' W 074°12'0 0.0
2017-Nov-18 21:26N 40°38' W 074°12'0 0.0
2017-Nov-18 20:56N 40°38' W 074°12'0 0.0
2017-Nov-18 20:26N 40°38' W 074°12'0 0.0
2017-Nov-18 19:56N 40°38' W 074°12'0 0.0
2017-Nov-18 19:26N 40°38' W 074°12'0 0.0
2017-Nov-18 18:56N 40°38' W 074°12'0 0.0
2017-Nov-18 18:26N 40°38' W 074°12'0 0.0
2017-Nov-18 17:56N 40°38' W 074°12'0 0.0
2017-Nov-18 17:20N 40°38' W 074°12'0 0.0
2017-Nov-18 16:56N 40°38' W 074°12'0 0.0
2017-Nov-18 16:26N 40°38' W 074°12'0 0.0
2017-Nov-18 15:50N 40°38' W 074°12'0 0.0
2017-Nov-18 15:29N 40°38' W 074°12'0 0.2
2017-Nov-18 15:00N 40°38' W 074°12'0 0.7
2017-Nov-18 14:30N 40°37' W 074°12'0 0.9
2017-Nov-18 14:00N 40°38' W 074°12'1 3.0
2017-Nov-18 13:30N 40°39' W 074°11'2 3.3
2017-Nov-18 13:01N 40°39' W 074°09'2 3.6
2017-Nov-18 12:31N 40°39' W 074°06'3 5.2
2017-Nov-18 12:01N 40°40' W 074°03'3 5.0
2017-Nov-18 11:31N 40°42' W 074°02'3 5.2
2017-Nov-18 11:01N 40°44' W 074°01'3 5.8
2017-Nov-18 10:30N 40°47' W 073°60'4 8.7
2017-Nov-18 10:00N 40°51' W 073°57'5 9.3
2017-Nov-18 09:30N 40°56' W 073°55'1 0.0
2017-Nov-17 11:07N 40°57' W 073°54'1 8.3
2017-Nov-17 10:57N 40°55' W 073°55'4 8.0
2017-Nov-17 10:30N 40°52' W 073°57'4 8.0
2017-Nov-17 10:00N 40°48' W 073°59'4 7.3
2017-Nov-17 09:30N 40°45' W 074°01'3 6.4
2017-Nov-17 09:00N 40°42' W 074°02'3 6.7
2017-Nov-17 08:30N 40°39' W 074°04'3 6.7
2017-Nov-17 08:00N 40°39' W 074°08'3 6.0
2017-Nov-17 07:30N 40°38' W 074°12'2 1.1
2017-Nov-17 05:16N 40°35' W 074°13'0 0.0
2017-Nov-17 04:46N 40°35' W 074°13'0 0.0
2017-Nov-16 21:31N 40°35' W 074°13'0 0.1
2017-Nov-16 21:27N 40°35' W 074°13'0 0.0
2017-Nov-16 20:28N 40°35' W 074°13'0 1.0
2017-Nov-16 20:00N 40°35' W 074°13'2 3.7
2017-Nov-16 19:30N 40°37' W 074°12'3 6.4
2017-Nov-16 19:00N 40°39' W 074°09'4 8.2
2017-Nov-16 18:30N 40°39' W 074°04'1 1.1
2017-Nov-16 18:00N 40°38' W 074°04'0 0.3
2017-Nov-16 17:31N 40°38' W 074°04'2 4.7
2017-Nov-16 17:00N 40°40' W 074°03'4 7.3
2017-Nov-16 16:30N 40°44' W 074°01'4 8.6
2017-Nov-16 16:00N 40°48' W 073°59'5 9.0
2017-Nov-16 15:30N 40°52' W 073°57'4 8.5
2017-Nov-16 14:59N 40°56' W 073°55'1 0.0
2017-Nov-15 20:44N 40°55' W 073°55'2 7.2
2017-Nov-15 20:30N 40°54' W 073°56'3 7.0
2017-Nov-15 20:00N 40°50' W 073°57'3 6.5
2017-Nov-15 19:30N 40°48' W 073°59'3 6.0
2017-Nov-15 19:00N 40°45' W 074°01'3 5.9
2017-Nov-15 18:30N 40°42' W 074°02'3 6.4
2017-Nov-15 18:00N 40°39' W 074°03'1 1.6
2017-Nov-15 17:30N 40°38' W 074°04'3 5.5
2017-Nov-15 17:00N 40°39' W 074°08'3 5.3
2017-Nov-15 16:30N 40°39' W 074°11'3 6.2
2017-Nov-15 16:00N 40°36' W 074°12'1 1.2
2017-Nov-15 15:30N 40°35' W 074°13'0 0.0
2017-Nov-15 14:13N 40°35' W 074°13'0 0.0
2017-Nov-15 13:13N 40°35' W 074°13'0 0.0
2017-Nov-15 12:55N 40°35' W 074°13'4 2.8
2017-Nov-15 11:30N 40°39' W 074°11'3 5.2
2017-Nov-15 10:58N 40°39' W 074°07'0 0.0
2017-Nov-15 10:28N 40°39' W 074°07'0 0.0
2017-Nov-15 09:58N 40°39' W 074°07'0 0.0
2017-Nov-15 09:28N 40°39' W 074°07'0 0.0
2017-Nov-15 08:58N 40°39' W 074°07'0 0.0
2017-Nov-15 08:31N 40°39' W 074°07'0 0.0
2017-Nov-15 08:00N 40°39' W 074°07'0 0.0
2017-Nov-15 07:30N 40°39' W 074°07'0 0.0
2017-Nov-15 07:00N 40°39' W 074°07'0 0.0
2017-Nov-15 06:30N 40°39' W 074°07'0 0.0
2017-Nov-15 06:00N 40°39' W 074°07'0 0.0
2017-Nov-15 05:30N 40°39' W 074°07'0 0.0
2017-Nov-15 05:01N 40°39' W 074°07'0 0.0
2017-Nov-15 04:30N 40°39' W 074°07'3 6.5
2017-Nov-15 04:00N 40°39' W 074°11'4 7.4
2017-Nov-15 03:30N 40°35' W 074°13'0 0.9
2017-Nov-15 03:00N 40°35' W 074°13'4 7.8
2017-Nov-15 02:30N 40°39' W 074°11'3 5.6
2017-Nov-15 02:01N 40°39' W 074°08'3 6.4
2017-Nov-15 01:30N 40°39' W 074°04'1 2.6
2017-Nov-15 01:00N 40°39' W 074°02'1 2.8
2017-Nov-15 00:30N 40°40' W 074°01'4 7.3
2017-Nov-15 00:00N 40°44' W 074°01'4 7.5
2017-Nov-14 23:30N 40°48' W 073°59'4 7.2
2017-Nov-14 23:00N 40°51' W 073°57'4 7.3
2017-Nov-14 22:30N 40°54' W 073°55'  

Dump ship's entire track history